sensor_id;sensor_type;location;lat;lon;timestamp;P1;durP1;ratioP1;P2;durP2;ratioP2
26488;SDS011;14169;43.684;10.484;2022-12-15T00:02:15;6.75;;;6.15;;
26488;SDS011;14169;43.684;10.484;2022-12-15T00:04:59;6.93;;;6.28;;
26488;SDS011;14169;43.684;10.484;2022-12-15T00:07:43;7.50;;;6.80;;
26488;SDS011;14169;43.684;10.484;2022-12-15T00:10:26;7.60;;;6.97;;
26488;SDS011;14169;43.684;10.484;2022-12-15T00:13:11;8.10;;;7.30;;
26488;SDS011;14169;43.684;10.484;2022-12-15T00:15:55;6.65;;;6.05;;
26488;SDS011;14169;43.684;10.484;2022-12-15T00:18:39;8.10;;;7.40;;
26488;SDS011;14169;43.684;10.484;2022-12-15T00:21:23;7.90;;;7.20;;
26488;SDS011;14169;43.684;10.484;2022-12-15T00:24:07;9.65;;;8.85;;
26488;SDS011;14169;43.684;10.484;2022-12-15T00:26:51;9.77;;;8.52;;
26488;SDS011;14169;43.684;10.484;2022-12-15T00:29:35;8.63;;;7.82;;
26488;SDS011;14169;43.684;10.484;2022-12-15T00:32:19;8.85;;;8.15;;
26488;SDS011;14169;43.684;10.484;2022-12-15T00:35:03;8.95;;;8.15;;
26488;SDS011;14169;43.684;10.484;2022-12-15T00:37:47;8.02;;;7.38;;
26488;SDS011;14169;43.684;10.484;2022-12-15T00:40:31;9.82;;;9.02;;
26488;SDS011;14169;43.684;10.484;2022-12-15T00:42:56;10.10;;;9.30;;
26488;SDS011;14169;43.684;10.484;2022-12-15T00:45:22;12.68;;;10.30;;
26488;SDS011;14169;43.684;10.484;2022-12-15T00:48:07;12.55;;;11.50;;
26488;SDS011;14169;43.684;10.484;2022-12-15T00:50:35;12.73;;;11.50;;
26488;SDS011;14169;43.684;10.484;2022-12-15T00:53:22;14.82;;;13.63;;
26488;SDS011;14169;43.684;10.484;2022-12-15T00:56:07;13.52;;;12.13;;
26488;SDS011;14169;43.684;10.484;2022-12-15T00:58:52;14.93;;;13.32;;
26488;SDS011;14169;43.684;10.484;2022-12-15T01:01:37;13.85;;;12.65;;
26488;SDS011;14169;43.684;10.484;2022-12-15T01:04:21;15.30;;;13.90;;
26488;SDS011;14169;43.684;10.484;2022-12-15T01:07:05;14.43;;;13.23;;
26488;SDS011;14169;43.684;10.484;2022-12-15T01:09:49;14.18;;;13.05;;
26488;SDS011;14169;43.684;10.484;2022-12-15T01:12:36;14.27;;;13.15;;
26488;SDS011;14169;43.684;10.484;2022-12-15T01:15:20;14.98;;;13.82;;
26488;SDS011;14169;43.684;10.484;2022-12-15T01:18:04;13.88;;;12.77;;
26488;SDS011;14169;43.684;10.484;2022-12-15T01:21:01;14.15;;;13.00;;
26488;SDS011;14169;43.684;10.484;2022-12-15T01:23:29;13.45;;;12.27;;
26488;SDS011;14169;43.684;10.484;2022-12-15T01:25:55;13.70;;;12.40;;
26488;SDS011;14169;43.684;10.484;2022-12-15T01:28:20;13.23;;;12.07;;
26488;SDS011;14169;43.684;10.484;2022-12-15T01:30:46;12.90;;;11.65;;
26488;SDS011;14169;43.684;10.484;2022-12-15T01:33:13;13.40;;;12.40;;
26488;SDS011;14169;43.684;10.484;2022-12-15T01:35:39;13.45;;;12.35;;
26488;SDS011;14169;43.684;10.484;2022-12-15T01:38:05;12.88;;;11.77;;
26488;SDS011;14169;43.684;10.484;2022-12-15T01:40:31;12.57;;;11.57;;
26488;SDS011;14169;43.684;10.484;2022-12-15T01:43:13;13.40;;;12.15;;
26488;SDS011;14169;43.684;10.484;2022-12-15T01:48:13;14.27;;;13.07;;
26488;SDS011;14169;43.684;10.484;2022-12-15T01:50:44;13.40;;;12.30;;
26488;SDS011;14169;43.684;10.484;2022-12-15T01:53:15;13.55;;;12.35;;
26488;SDS011;14169;43.684;10.484;2022-12-15T01:55:42;15.15;;;13.95;;
26488;SDS011;14169;43.684;10.484;2022-12-15T01:58:10;15.07;;;13.80;;
26488;SDS011;14169;43.684;10.484;2022-12-15T02:00:38;15.90;;;14.50;;
26488;SDS011;14169;43.684;10.484;2022-12-15T02:03:03;14.43;;;13.32;;
26488;SDS011;14169;43.684;10.484;2022-12-15T02:05:30;15.85;;;14.40;;
26488;SDS011;14169;43.684;10.484;2022-12-15T02:07:58;15.90;;;14.60;;
26488;SDS011;14169;43.684;10.484;2022-12-15T02:10:26;14.38;;;13.27;;
26488;SDS011;14169;43.684;10.484;2022-12-15T02:13:08;15.25;;;13.95;;
26488;SDS011;14169;43.684;10.484;2022-12-15T02:16:06;14.57;;;13.27;;
26488;SDS011;14169;43.684;10.484;2022-12-15T02:21:45;15.27;;;14.07;;
26488;SDS011;14169;43.684;10.484;2022-12-15T02:29:43;18.52;;;17.02;;
26488;SDS011;14169;43.684;10.484;2022-12-15T02:32:15;19.20;;;17.58;;
26488;SDS011;14169;43.684;10.484;2022-12-15T02:35:05;16.02;;;14.75;;
26488;SDS011;14169;43.684;10.484;2022-12-15T02:37:36;14.50;;;13.35;;
26488;SDS011;14169;43.684;10.484;2022-12-15T02:40:04;14.60;;;13.48;;
26488;SDS011;14169;43.684;10.484;2022-12-15T02:42:33;14.50;;;13.32;;
26488;SDS011;14169;43.684;10.484;2022-12-15T02:45:09;13.60;;;12.40;;
26488;SDS011;14169;43.684;10.484;2022-12-15T02:47:42;15.30;;;13.65;;
26488;SDS011;14169;43.684;10.484;2022-12-15T02:50:18;14.60;;;13.38;;
26488;SDS011;14169;43.684;10.484;2022-12-15T02:58:15;14.70;;;13.50;;
26488;SDS011;14169;43.684;10.484;2022-12-15T03:00:52;15.05;;;13.65;;
26488;SDS011;14169;43.684;10.484;2022-12-15T03:03:23;14.90;;;13.57;;
26488;SDS011;14169;43.684;10.484;2022-12-15T03:05:51;13.80;;;12.65;;
26488;SDS011;14169;43.684;10.484;2022-12-15T03:08:19;13.18;;;11.98;;
26488;SDS011;14169;43.684;10.484;2022-12-15T03:10:45;12.52;;;11.50;;
26488;SDS011;14169;43.684;10.484;2022-12-15T03:13:13;13.15;;;12.05;;
26488;SDS011;14169;43.684;10.484;2022-12-15T03:15:39;12.63;;;11.52;;
26488;SDS011;14169;43.684;10.484;2022-12-15T03:18:04;12.70;;;11.70;;
26488;SDS011;14169;43.684;10.484;2022-12-15T03:20:29;12.18;;;11.10;;
26488;SDS011;14169;43.684;10.484;2022-12-15T03:22:55;11.57;;;10.57;;
26488;SDS011;14169;43.684;10.484;2022-12-15T03:25:20;10.57;;;9.68;;
26488;SDS011;14169;43.684;10.484;2022-12-15T03:27:46;10.50;;;9.70;;
26488;SDS011;14169;43.684;10.484;2022-12-15T03:30:11;10.65;;;9.85;;
26488;SDS011;14169;43.684;10.484;2022-12-15T03:32:40;11.57;;;10.57;;
26488;SDS011;14169;43.684;10.484;2022-12-15T03:35:06;11.45;;;10.45;;
26488;SDS011;14169;43.684;10.484;2022-12-15T03:37:32;10.20;;;9.40;;
26488;SDS011;14169;43.684;10.484;2022-12-15T03:39:57;9.32;;;8.52;;
26488;SDS011;14169;43.684;10.484;2022-12-15T03:42:22;9.65;;;8.85;;
26488;SDS011;14169;43.684;10.484;2022-12-15T03:45:06;12.00;;;8.98;;
26488;SDS011;14169;43.684;10.484;2022-12-15T03:47:32;8.73;;;8.02;;
26488;SDS011;14169;43.684;10.484;2022-12-15T03:49:57;8.35;;;7.70;;
26488;SDS011;14169;43.684;10.484;2022-12-15T03:52:23;8.93;;;8.23;;
26488;SDS011;14169;43.684;10.484;2022-12-15T03:54:48;8.48;;;7.78;;
26488;SDS011;14169;43.684;10.484;2022-12-15T03:57:14;9.23;;;8.45;;
26488;SDS011;14169;43.684;10.484;2022-12-15T03:59:39;9.95;;;9.15;;
26488;SDS011;14169;43.684;10.484;2022-12-15T04:02:04;9.60;;;8.85;;
26488;SDS011;14169;43.684;10.484;2022-12-15T04:04:30;10.32;;;9.48;;
26488;SDS011;14169;43.684;10.484;2022-12-15T04:06:55;11.00;;;10.00;;
26488;SDS011;14169;43.684;10.484;2022-12-15T04:09:21;10.10;;;9.20;;
26488;SDS011;14169;43.684;10.484;2022-12-15T04:11:46;11.52;;;10.50;;
26488;SDS011;14169;43.684;10.484;2022-12-15T04:14:11;9.85;;;9.05;;
26488;SDS011;14169;43.684;10.484;2022-12-15T04:16:37;8.15;;;7.45;;
26488;SDS011;14169;43.684;10.484;2022-12-15T04:19:02;7.70;;;7.00;;
26488;SDS011;14169;43.684;10.484;2022-12-15T04:22:00;7.43;;;6.70;;
26488;SDS011;14169;43.684;10.484;2022-12-15T04:24:27;6.55;;;5.97;;
26488;SDS011;14169;43.684;10.484;2022-12-15T04:27:11;8.05;;;7.30;;
26488;SDS011;14169;43.684;10.484;2022-12-15T04:29:55;10.80;;;9.80;;
26488;SDS011;14169;43.684;10.484;2022-12-15T04:32:39;9.88;;;9.02;;
26488;SDS011;14169;43.684;10.484;2022-12-15T04:35:23;6.60;;;6.03;;
26488;SDS011;14169;43.684;10.484;2022-12-15T04:38:07;8.07;;;7.38;;
26488;SDS011;14169;43.684;10.484;2022-12-15T04:40:51;7.97;;;7.18;;
26488;SDS011;14169;43.684;10.484;2022-12-15T04:43:35;7.40;;;6.80;;
26488;SDS011;14169;43.684;10.484;2022-12-15T04:46:18;7.20;;;6.60;;
26488;SDS011;14169;43.684;10.484;2022-12-15T04:49:03;7.85;;;6.63;;
26488;SDS011;14169;43.684;10.484;2022-12-15T04:51:46;6.18;;;5.68;;
26488;SDS011;14169;43.684;10.484;2022-12-15T04:54:30;5.57;;;5.18;;
26488;SDS011;14169;43.684;10.484;2022-12-15T04:57:14;5.70;;;5.18;;
26488;SDS011;14169;43.684;10.484;2022-12-15T04:59:58;4.57;;;4.18;;
26488;SDS011;14169;43.684;10.484;2022-12-15T05:02:42;4.15;;;3.75;;
26488;SDS011;14169;43.684;10.484;2022-12-15T05:05:26;4.13;;;3.80;;
26488;SDS011;14169;43.684;10.484;2022-12-15T05:08:10;3.78;;;3.47;;
26488;SDS011;14169;43.684;10.484;2022-12-15T05:10:54;3.83;;;3.53;;
26488;SDS011;14169;43.684;10.484;2022-12-15T05:13:38;4.28;;;3.97;;
26488;SDS011;14169;43.684;10.484;2022-12-15T05:16:22;4.55;;;4.15;;
26488;SDS011;14169;43.684;10.484;2022-12-15T05:19:05;4.97;;;4.57;;
26488;SDS011;14169;43.684;10.484;2022-12-15T05:21:49;5.03;;;4.57;;
26488;SDS011;14169;43.684;10.484;2022-12-15T05:24:33;4.85;;;4.45;;
26488;SDS011;14169;43.684;10.484;2022-12-15T05:27:17;5.28;;;4.88;;
26488;SDS011;14169;43.684;10.484;2022-12-15T05:30:01;6.00;;;5.50;;
26488;SDS011;14169;43.684;10.484;2022-12-15T05:32:46;6.53;;;5.97;;
26488;SDS011;14169;43.684;10.484;2022-12-15T05:35:11;6.82;;;6.22;;
26488;SDS011;14169;43.684;10.484;2022-12-15T05:37:37;7.22;;;6.63;;
26488;SDS011;14169;43.684;10.484;2022-12-15T05:40:02;6.10;;;5.60;;
26488;SDS011;14169;43.684;10.484;2022-12-15T05:42:28;6.65;;;6.15;;
26488;SDS011;14169;43.684;10.484;2022-12-15T05:44:53;6.93;;;6.32;;
26488;SDS011;14169;43.684;10.484;2022-12-15T05:47:19;6.22;;;5.70;;
26488;SDS011;14169;43.684;10.484;2022-12-15T05:49:44;6.22;;;5.72;;
26488;SDS011;14169;43.684;10.484;2022-12-15T05:52:10;6.10;;;5.60;;
26488;SDS011;14169;43.684;10.484;2022-12-15T05:54:35;6.85;;;6.25;;
26488;SDS011;14169;43.684;10.484;2022-12-15T05:57:00;6.38;;;5.88;;
26488;SDS011;14169;43.684;10.484;2022-12-15T05:59:26;7.25;;;6.60;;
26488;SDS011;14169;43.684;10.484;2022-12-15T06:01:51;5.78;;;5.28;;
26488;SDS011;14169;43.684;10.484;2022-12-15T06:04:17;7.07;;;6.47;;
26488;SDS011;14169;43.684;10.484;2022-12-15T06:06:42;8.57;;;7.88;;
26488;SDS011;14169;43.684;10.484;2022-12-15T06:09:08;8.63;;;7.93;;
26488;SDS011;14169;43.684;10.484;2022-12-15T06:11:33;9.20;;;8.45;;
26488;SDS011;14169;43.684;10.484;2022-12-15T06:13:59;10.15;;;9.32;;
26488;SDS011;14169;43.684;10.484;2022-12-15T06:16:25;9.93;;;9.13;;
26488;SDS011;14169;43.684;10.484;2022-12-15T06:18:53;9.82;;;9.02;;
26488;SDS011;14169;43.684;10.484;2022-12-15T06:21:22;10.90;;;9.82;;
26488;SDS011;14169;43.684;10.484;2022-12-15T06:28:47;10.05;;;9.15;;
26488;SDS011;14169;43.684;10.484;2022-12-15T06:31:14;9.70;;;8.90;;
26488;SDS011;14169;43.684;10.484;2022-12-15T06:33:41;10.60;;;9.80;;
26488;SDS011;14169;43.684;10.484;2022-12-15T06:36:08;11.60;;;10.70;;
26488;SDS011;14169;43.684;10.484;2022-12-15T06:38:38;13.77;;;12.68;;
26488;SDS011;14169;43.684;10.484;2022-12-15T06:41:06;12.77;;;11.70;;
26488;SDS011;14169;43.684;10.484;2022-12-15T06:43:31;11.80;;;10.82;;
26488;SDS011;14169;43.684;10.484;2022-12-15T06:45:58;11.98;;;10.98;;
26488;SDS011;14169;43.684;10.484;2022-12-15T06:48:24;10.65;;;9.75;;
26488;SDS011;14169;43.684;10.484;2022-12-15T06:50:49;11.43;;;10.52;;
26488;SDS011;14169;43.684;10.484;2022-12-15T06:53:16;11.57;;;10.60;;
26488;SDS011;14169;43.684;10.484;2022-12-15T06:55:43;11.57;;;10.57;;
26488;SDS011;14169;43.684;10.484;2022-12-15T06:58:09;11.02;;;10.13;;
26488;SDS011;14169;43.684;10.484;2022-12-15T07:00:36;11.27;;;10.38;;
26488;SDS011;14169;43.684;10.484;2022-12-15T07:03:03;13.05;;;11.80;;
26488;SDS011;14169;43.684;10.484;2022-12-15T07:05:30;11.85;;;10.85;;
26488;SDS011;14169;43.684;10.484;2022-12-15T07:07:56;10.85;;;10.00;;
26488;SDS011;14169;43.684;10.484;2022-12-15T07:10:21;11.45;;;10.45;;
26488;SDS011;14169;43.684;10.484;2022-12-15T07:12:47;11.00;;;10.00;;
26488;SDS011;14169;43.684;10.484;2022-12-15T07:15:12;11.02;;;10.02;;
26488;SDS011;14169;43.684;10.484;2022-12-15T07:17:37;10.63;;;9.73;;
26488;SDS011;14169;43.684;10.484;2022-12-15T07:20:03;10.00;;;9.13;;
26488;SDS011;14169;43.684;10.484;2022-12-15T07:22:29;9.02;;;8.32;;
26488;SDS011;14169;43.684;10.484;2022-12-15T07:24:55;7.60;;;6.90;;
26488;SDS011;14169;43.684;10.484;2022-12-15T07:27:20;9.02;;;8.30;;
26488;SDS011;14169;43.684;10.484;2022-12-15T07:29:46;9.65;;;8.63;;
26488;SDS011;14169;43.684;10.484;2022-12-15T07:32:11;8.43;;;7.72;;
26488;SDS011;14169;43.684;10.484;2022-12-15T07:34:36;9.15;;;8.35;;
26488;SDS011;14169;43.684;10.484;2022-12-15T07:37:02;8.50;;;7.68;;
26488;SDS011;14169;43.684;10.484;2022-12-15T07:39:27;9.00;;;8.20;;
26488;SDS011;14169;43.684;10.484;2022-12-15T07:41:53;10.00;;;8.88;;
26488;SDS011;14169;43.684;10.484;2022-12-15T07:44:18;12.23;;;11.07;;
26488;SDS011;14169;43.684;10.484;2022-12-15T07:46:45;6.75;;;5.88;;
26488;SDS011;14169;43.684;10.484;2022-12-15T07:49:13;6.50;;;6.00;;
26488;SDS011;14169;43.684;10.484;2022-12-15T07:51:39;6.70;;;6.10;;
26488;SDS011;14169;43.684;10.484;2022-12-15T07:54:05;4.63;;;4.13;;
26488;SDS011;14169;43.684;10.484;2022-12-15T07:56:30;4.32;;;4.03;;
26488;SDS011;14169;43.684;10.484;2022-12-15T07:58:56;4.25;;;3.78;;
26488;SDS011;14169;43.684;10.484;2022-12-15T08:01:21;4.40;;;4.00;;
26488;SDS011;14169;43.684;10.484;2022-12-15T08:03:48;4.70;;;3.70;;
26488;SDS011;14169;43.684;10.484;2022-12-15T08:06:14;5.05;;;4.03;;
26488;SDS011;14169;43.684;10.484;2022-12-15T08:08:40;3.53;;;3.22;;
26488;SDS011;14169;43.684;10.484;2022-12-15T08:11:08;3.22;;;2.92;;
26488;SDS011;14169;43.684;10.484;2022-12-15T08:13:35;10.25;;;8.82;;
26488;SDS011;14169;43.684;10.484;2022-12-15T08:16:02;3.75;;;2.88;;
26488;SDS011;14169;43.684;10.484;2022-12-15T08:18:27;2.70;;;2.50;;
26488;SDS011;14169;43.684;10.484;2022-12-15T08:20:53;3.17;;;2.67;;
26488;SDS011;14169;43.684;10.484;2022-12-15T08:23:19;2.22;;;1.70;;
26488;SDS011;14169;43.684;10.484;2022-12-15T08:25:44;2.70;;;2.10;;
26488;SDS011;14169;43.684;10.484;2022-12-15T08:28:09;3.47;;;1.95;;
26488;SDS011;14169;43.684;10.484;2022-12-15T08:30:35;3.05;;;2.15;;
26488;SDS011;14169;43.684;10.484;2022-12-15T08:33:01;3.65;;;1.80;;
26488;SDS011;14169;43.684;10.484;2022-12-15T08:35:27;1.70;;;1.60;;
26488;SDS011;14169;43.684;10.484;2022-12-15T08:37:52;2.15;;;1.80;;
26488;SDS011;14169;43.684;10.484;2022-12-15T08:40:18;2.10;;;1.73;;
26488;SDS011;14169;43.684;10.484;2022-12-15T08:42:43;2.40;;;2.15;;
26488;SDS011;14169;43.684;10.484;2022-12-15T08:45:09;3.03;;;2.45;;
26488;SDS011;14169;43.684;10.484;2022-12-15T08:47:36;2.95;;;2.58;;
26488;SDS011;14169;43.684;10.484;2022-12-15T08:50:02;2.65;;;2.03;;
26488;SDS011;14169;43.684;10.484;2022-12-15T08:52:28;1.85;;;1.67;;
26488;SDS011;14169;43.684;10.484;2022-12-15T08:54:53;1.73;;;1.63;;
26488;SDS011;14169;43.684;10.484;2022-12-15T08:57:19;1.75;;;1.50;;
26488;SDS011;14169;43.684;10.484;2022-12-15T08:59:44;2.30;;;1.50;;
26488;SDS011;14169;43.684;10.484;2022-12-15T09:02:13;2.58;;;1.70;;
26488;SDS011;14169;43.684;10.484;2022-12-15T09:04:39;2.25;;;1.90;;
26488;SDS011;14169;43.684;10.484;2022-12-15T09:07:05;2.08;;;1.58;;
26488;SDS011;14169;43.684;10.484;2022-12-15T09:09:31;2.10;;;1.75;;
26488;SDS011;14169;43.684;10.484;2022-12-15T09:11:56;2.90;;;2.15;;
26488;SDS011;14169;43.684;10.484;2022-12-15T09:14:22;2.22;;;2.00;;
26488;SDS011;14169;43.684;10.484;2022-12-15T09:16:47;2.70;;;2.38;;
26488;SDS011;14169;43.684;10.484;2022-12-15T09:19:13;4.20;;;3.50;;
26488;SDS011;14169;43.684;10.484;2022-12-15T09:21:38;4.25;;;3.33;;
26488;SDS011;14169;43.684;10.484;2022-12-15T09:24:04;2.78;;;2.50;;
26488;SDS011;14169;43.684;10.484;2022-12-15T09:26:31;2.90;;;2.70;;
26488;SDS011;14169;43.684;10.484;2022-12-15T09:28:58;3.63;;;2.83;;
26488;SDS011;14169;43.684;10.484;2022-12-15T09:31:24;3.50;;;2.80;;
26488;SDS011;14169;43.684;10.484;2022-12-15T09:33:53;3.75;;;3.00;;
26488;SDS011;14169;43.684;10.484;2022-12-15T09:36:19;3.65;;;2.67;;
26488;SDS011;14169;43.684;10.484;2022-12-15T09:38:46;4.15;;;2.83;;
26488;SDS011;14169;43.684;10.484;2022-12-15T09:43:38;3.42;;;2.90;;
26488;SDS011;14169;43.684;10.484;2022-12-15T09:52:08;1.83;;;1.65;;
26488;SDS011;14169;43.684;10.484;2022-12-15T09:54:40;2.22;;;2.03;;
26488;SDS011;14169;43.684;10.484;2022-12-15T10:05:47;2.60;;;1.80;;
26488;SDS011;14169;43.684;10.484;2022-12-15T10:08:15;2.22;;;2.03;;
26488;SDS011;14169;43.684;10.484;2022-12-15T10:14:25;3.55;;;2.50;;
26488;SDS011;14169;43.684;10.484;2022-12-15T10:16:30;2.75;;;2.55;;
26488;SDS011;14169;43.684;10.484;2022-12-15T10:19:07;2.15;;;1.77;;
26488;SDS011;14169;43.684;10.484;2022-12-15T10:21:38;2.38;;;2.08;;
26488;SDS011;14169;43.684;10.484;2022-12-15T10:24:14;2.47;;;1.70;;
26488;SDS011;14169;43.684;10.484;2022-12-15T10:26:42;2.65;;;1.95;;
26488;SDS011;14169;43.684;10.484;2022-12-15T10:29:17;2.38;;;1.70;;
26488;SDS011;14169;43.684;10.484;2022-12-15T10:31:53;5.55;;;1.85;;
26488;SDS011;14169;43.684;10.484;2022-12-15T10:36:49;3.17;;;1.60;;
26488;SDS011;14169;43.684;10.484;2022-12-15T10:39:16;1.83;;;1.25;;
26488;SDS011;14169;43.684;10.484;2022-12-15T10:41:42;2.42;;;1.30;;
26488;SDS011;14169;43.684;10.484;2022-12-15T10:44:20;2.63;;;1.30;;
26488;SDS011;14169;43.684;10.484;2022-12-15T10:46:53;7.05;;;1.10;;
26488;SDS011;14169;43.684;10.484;2022-12-15T10:49:20;1.45;;;1.20;;
26488;SDS011;14169;43.684;10.484;2022-12-15T10:51:54;2.33;;;1.25;;
26488;SDS011;14169;43.684;10.484;2022-12-15T10:54:21;3.08;;;1.30;;
26488;SDS011;14169;43.684;10.484;2022-12-15T10:56:51;2.45;;;1.30;;
26488;SDS011;14169;43.684;10.484;2022-12-15T10:59:31;1.83;;;1.30;;
26488;SDS011;14169;43.684;10.484;2022-12-15T11:04:56;3.10;;;2.13;;
26488;SDS011;14169;43.684;10.484;2022-12-15T11:07:31;2.45;;;1.67;;
26488;SDS011;14169;43.684;10.484;2022-12-15T11:10:00;2.10;;;1.65;;
26488;SDS011;14169;43.684;10.484;2022-12-15T11:12:32;2.40;;;1.58;;
26488;SDS011;14169;43.684;10.484;2022-12-15T11:17:55;3.97;;;1.48;;
26488;SDS011;14169;43.684;10.484;2022-12-15T11:20:29;3.47;;;1.98;;
26488;SDS011;14169;43.684;10.484;2022-12-15T11:23:00;5.13;;;2.53;;
26488;SDS011;14169;43.684;10.484;2022-12-15T11:25:42;1.63;;;1.30;;
26488;SDS011;14169;43.684;10.484;2022-12-15T11:28:18;3.40;;;1.80;;
26488;SDS011;14169;43.684;10.484;2022-12-15T11:30:59;2.40;;;1.40;;
26488;SDS011;14169;43.684;10.484;2022-12-15T11:33:31;2.08;;;1.42;;
26488;SDS011;14169;43.684;10.484;2022-12-15T11:38:48;2.08;;;1.58;;
26488;SDS011;14169;43.684;10.484;2022-12-15T11:46:58;2.90;;;1.65;;
26488;SDS011;14169;43.684;10.484;2022-12-15T11:49:32;2.50;;;1.67;;
26488;SDS011;14169;43.684;10.484;2022-12-15T12:00:28;3.28;;;1.83;;
26488;SDS011;14169;43.684;10.484;2022-12-15T12:03:03;3.33;;;1.83;;
26488;SDS011;14169;43.684;10.484;2022-12-15T12:08:28;2.28;;;2.08;;
26488;SDS011;14169;43.684;10.484;2022-12-15T12:11:12;3.08;;;2.30;;
26488;SDS011;14169;43.684;10.484;2022-12-15T12:13:42;3.25;;;2.22;;
26488;SDS011;14169;43.684;10.484;2022-12-15T12:18:56;4.00;;;2.58;;
26488;SDS011;14169;43.684;10.484;2022-12-15T12:21:27;4.78;;;2.03;;
26488;SDS011;14169;43.684;10.484;2022-12-15T12:29:20;4.05;;;3.75;;
26488;SDS011;14169;43.684;10.484;2022-12-15T12:31:50;3.08;;;2.28;;
26488;SDS011;14169;43.684;10.484;2022-12-15T12:37:08;2.88;;;1.90;;
26488;SDS011;14169;43.684;10.484;2022-12-15T12:39:44;4.15;;;2.08;;
26488;SDS011;14169;43.684;10.484;2022-12-15T12:42:14;2.47;;;2.00;;
26488;SDS011;14169;43.684;10.484;2022-12-15T12:44:49;3.97;;;2.05;;
26488;SDS011;14169;43.684;10.484;2022-12-15T12:47:16;2.50;;;1.60;;
26488;SDS011;14169;43.684;10.484;2022-12-15T12:50:32;2.85;;;2.05;;
26488;SDS011;14169;43.684;10.484;2022-12-15T12:53:02;2.20;;;1.50;;
26488;SDS011;14169;43.684;10.484;2022-12-15T12:55:28;2.80;;;1.58;;
26488;SDS011;14169;43.684;10.484;2022-12-15T12:58:47;5.32;;;2.80;;
26488;SDS011;14169;43.684;10.484;2022-12-15T13:03:40;2.80;;;1.80;;
26488;SDS011;14169;43.684;10.484;2022-12-15T13:06:19;4.50;;;2.10;;
26488;SDS011;14169;43.684;10.484;2022-12-15T13:12:04;3.30;;;1.70;;
26488;SDS011;14169;43.684;10.484;2022-12-15T13:17:05;2.50;;;1.60;;
26488;SDS011;14169;43.684;10.484;2022-12-15T13:22:32;2.53;;;1.42;;
26488;SDS011;14169;43.684;10.484;2022-12-15T13:25:00;2.40;;;1.42;;
26488;SDS011;14169;43.684;10.484;2022-12-15T13:27:36;2.17;;;1.40;;
26488;SDS011;14169;43.684;10.484;2022-12-15T13:35:02;2.30;;;1.98;;
26488;SDS011;14169;43.684;10.484;2022-12-15T13:37:59;2.53;;;1.80;;
26488;SDS011;14169;43.684;10.484;2022-12-15T13:50:40;2.45;;;1.75;;
26488;SDS011;14169;43.684;10.484;2022-12-15T13:53:15;1.63;;;1.38;;
26488;SDS011;14169;43.684;10.484;2022-12-15T13:58:23;1.70;;;1.50;;
26488;SDS011;14169;43.684;10.484;2022-12-15T14:00:51;1.83;;;1.45;;
26488;SDS011;14169;43.684;10.484;2022-12-15T14:03:18;2.13;;;1.55;;
26488;SDS011;14169;43.684;10.484;2022-12-15T14:05:54;2.05;;;1.85;;
26488;SDS011;14169;43.684;10.484;2022-12-15T14:08:23;2.65;;;1.98;;
26488;SDS011;14169;43.684;10.484;2022-12-15T14:10:50;2.15;;;1.70;;
26488;SDS011;14169;43.684;10.484;2022-12-15T14:16:01;2.58;;;1.88;;
26488;SDS011;14169;43.684;10.484;2022-12-15T14:18:36;2.50;;;1.70;;
26488;SDS011;14169;43.684;10.484;2022-12-15T14:21:06;1.67;;;1.20;;
26488;SDS011;14169;43.684;10.484;2022-12-15T14:23:44;1.85;;;1.20;;
26488;SDS011;14169;43.684;10.484;2022-12-15T14:26:10;1.33;;;1.10;;
26488;SDS011;14169;43.684;10.484;2022-12-15T14:28:38;2.10;;;1.38;;
26488;SDS011;14169;43.684;10.484;2022-12-15T14:31:09;1.13;;;0.90;;
26488;SDS011;14169;43.684;10.484;2022-12-15T14:33:39;1.80;;;0.90;;
26488;SDS011;14169;43.684;10.484;2022-12-15T14:36:09;1.20;;;0.80;;
26488;SDS011;14169;43.684;10.484;2022-12-15T14:41:23;1.30;;;1.20;;
26488;SDS011;14169;43.684;10.484;2022-12-15T14:43:50;0.85;;;0.85;;
26488;SDS011;14169;43.684;10.484;2022-12-15T14:46:21;1.98;;;1.23;;
26488;SDS011;14169;43.684;10.484;2022-12-15T14:48:59;1.90;;;1.20;;
26488;SDS011;14169;43.684;10.484;2022-12-15T14:51:28;1.48;;;1.15;;
26488;SDS011;14169;43.684;10.484;2022-12-15T14:54:03;1.67;;;1.10;;
26488;SDS011;14169;43.684;10.484;2022-12-15T14:56:28;1.10;;;1.00;;
26488;SDS011;14169;43.684;10.484;2022-12-15T14:59:14;1.42;;;0.95;;
26488;SDS011;14169;43.684;10.484;2022-12-15T15:01:49;2.15;;;1.05;;
26488;SDS011;14169;43.684;10.484;2022-12-15T15:04:24;1.45;;;1.13;;
26488;SDS011;14169;43.684;10.484;2022-12-15T15:06:54;0.98;;;0.90;;
26488;SDS011;14169;43.684;10.484;2022-12-15T15:09:25;0.98;;;0.80;;
26488;SDS011;14169;43.684;10.484;2022-12-15T15:19:38;1.00;;;0.90;;
26488;SDS011;14169;43.684;10.484;2022-12-15T15:22:22;1.30;;;1.10;;
26488;SDS011;14169;43.684;10.484;2022-12-15T15:24:52;1.02;;;0.93;;
26488;SDS011;14169;43.684;10.484;2022-12-15T15:27:25;1.75;;;0.90;;
26488;SDS011;14169;43.684;10.484;2022-12-15T15:30:14;1.15;;;1.00;;
26488;SDS011;14169;43.684;10.484;2022-12-15T15:32:50;4.30;;;3.03;;
26488;SDS011;14169;43.684;10.484;2022-12-15T15:35:17;2.60;;;1.50;;
26488;SDS011;14169;43.684;10.484;2022-12-15T15:37:44;1.25;;;0.90;;
26488;SDS011;14169;43.684;10.484;2022-12-15T15:40:11;2.45;;;1.80;;
26488;SDS011;14169;43.684;10.484;2022-12-15T15:42:39;1.70;;;1.50;;
26488;SDS011;14169;43.684;10.484;2022-12-15T15:45:09;3.45;;;2.30;;
26488;SDS011;14169;43.684;10.484;2022-12-15T15:47:37;1.10;;;1.00;;
26488;SDS011;14169;43.684;10.484;2022-12-15T15:50:04;1.77;;;1.50;;
26488;SDS011;14169;43.684;10.484;2022-12-15T15:52:30;1.85;;;1.40;;
26488;SDS011;14169;43.684;10.484;2022-12-15T15:54:56;1.38;;;1.27;;
26488;SDS011;14169;43.684;10.484;2022-12-15T15:57:22;1.13;;;1.02;;
26488;SDS011;14169;43.684;10.484;2022-12-15T15:59:48;1.70;;;1.23;;
26488;SDS011;14169;43.684;10.484;2022-12-15T16:02:13;1.67;;;1.50;;
26488;SDS011;14169;43.684;10.484;2022-12-15T16:04:39;2.33;;;2.10;;
26488;SDS011;14169;43.684;10.484;2022-12-15T16:09:52;5.72;;;5.07;;
26488;SDS011;14169;43.684;10.484;2022-12-15T16:12:39;2.97;;;2.70;;
26488;SDS011;14169;43.684;10.484;2022-12-15T16:15:13;2.03;;;1.83;;
26488;SDS011;14169;43.684;10.484;2022-12-15T16:17:52;1.50;;;1.23;;
26488;SDS011;14169;43.684;10.484;2022-12-15T16:20:20;4.88;;;4.35;;
26488;SDS011;14169;43.684;10.484;2022-12-15T16:22:48;2.90;;;2.20;;
26488;SDS011;14169;43.684;10.484;2022-12-15T16:25:41;3.22;;;2.40;;
26488;SDS011;14169;43.684;10.484;2022-12-15T16:28:17;1.95;;;1.70;;
26488;SDS011;14169;43.684;10.484;2022-12-15T16:30:44;2.90;;;2.30;;
26488;SDS011;14169;43.684;10.484;2022-12-15T16:33:10;2.80;;;1.77;;
26488;SDS011;14169;43.684;10.484;2022-12-15T16:35:36;1.80;;;1.50;;
26488;SDS011;14169;43.684;10.484;2022-12-15T16:38:04;2.03;;;1.50;;
26488;SDS011;14169;43.684;10.484;2022-12-15T16:40:30;4.85;;;3.83;;
26488;SDS011;14169;43.684;10.484;2022-12-15T16:43:01;6.97;;;6.35;;
26488;SDS011;14169;43.684;10.484;2022-12-15T16:45:28;14.80;;;13.13;;
26488;SDS011;14169;43.684;10.484;2022-12-15T16:47:55;13.77;;;12.30;;
26488;SDS011;14169;43.684;10.484;2022-12-15T16:50:28;16.73;;;14.80;;
26488;SDS011;14169;43.684;10.484;2022-12-15T16:52:58;9.73;;;8.93;;
26488;SDS011;14169;43.684;10.484;2022-12-15T16:55:27;7.30;;;6.60;;
26488;SDS011;14169;43.684;10.484;2022-12-15T16:58:12;8.52;;;7.82;;
26488;SDS011;14169;43.684;10.484;2022-12-15T17:00:41;3.45;;;3.00;;